Time;durP1;ratioP1;P1;durP2;ratioP2;P2;SDS_P1;SDS_P2;PMS_P1;PMS_P2;Temp;Humidity;BMP_temperature;BMP_pressure;BME280_temperature;BME280_humidity;BME280_pressure;Samples;Min_cycle;Max_cycle;Signal;HPM_P1;HPM_P2
2023/03/29 00:01:40;;;;;;;4.07;3.88;;;;;;;3.58;100.00;101153.81;6084873;23;20624;-75
2023/03/29 00:04:08;;;;;;;3.97;3.70;;;;;;;5.00;100.00;101383.50;6054404;23;20227;-75
2023/03/29 00:06:35;;;;;;;4.88;4.45;;;;;;;4.69;100.00;101324.25;6080278;23;20504;-76
2023/03/29 00:09:04;;;;;;;9.38;4.40;;;;;;;4.64;100.00;101304.41;6079059;23;20025;-76
2023/03/29 00:11:31;;;;;;;5.65;3.67;;;;;;;5.04;100.00;101364.34;6060673;23;20018;-75
2023/03/29 00:13:57;;;;;;;4.45;4.13;;;;;;;4.62;100.00;101299.25;6079116;23;20030;-76
2023/03/29 00:16:24;;;;;;;3.45;3.25;;;;;;;4.50;100.00;101278.66;6105794;23;20509;-75
2023/03/29 00:18:53;;;;;;;4.32;3.45;;;;;;;4.57;100.00;101288.94;6081808;23;20105;-76
2023/03/29 00:21:19;;;;;;;3.83;3.58;;;;;;;4.80;100.00;101335.31;6080602;23;20026;-75
2023/03/29 00:23:45;;;;;;;4.18;3.85;;;;;;;4.52;100.00;101288.16;6100548;23;20212;-75
2023/03/29 00:26:12;;;;;;;3.83;3.63;;;;;;;4.67;100.00;101309.53;6105223;23;20087;-75
2023/03/29 00:28:38;;;;;;;3.85;3.65;;;;;;;4.50;100.00;101286.47;6077815;23;20034;-76
2023/03/29 00:31:11;;;;;;;9.95;9.45;;;;;;;4.96;100.00;101343.69;6046844;23;20029;-76
2023/03/29 00:33:39;;;;;;;4.50;4.18;;;;;;;4.97;100.00;101341.94;6033201;23;20071;-74
2023/03/29 00:36:07;;;;;;;3.85;3.65;;;;;;;4.46;100.00;101243.22;6079755;23;20366;-74
2023/03/29 00:38:34;;;;;;;3.90;3.70;;;;;;;4.71;100.00;101290.41;6077647;23;20043;-75
2023/03/29 00:41:00;;;;;;;3.53;3.40;;;;;;;4.93;100.00;101332.47;6083830;23;20030;-75
2023/03/29 00:43:27;;;;;;;3.20;3.10;;;;;;;4.40;100.00;101246.78;6078869;23;20023;-75
2023/03/29 00:45:54;;;;;;;5.10;3.50;;;;;;;4.93;100.00;101356.75;6081979;23;20083;-78
2023/03/29 00:48:24;;;;;;;4.00;3.80;;;;;;;4.56;100.00;101266.41;6083297;23;20104;-76
2023/03/29 00:50:56;;;;;;;3.88;3.67;;;;;;;4.91;100.00;101310.84;6067404;23;20026;-75
2023/03/29 00:53:28;;;;;;;3.60;3.40;;;;;;;4.68;100.00;101278.31;6108872;23;20037;-75
2023/03/29 00:56:10;;;;;;;3.60;3.40;;;;;;;4.55;100.00;101269.03;6061435;23;20034;-75
2023/03/29 00:58:46;;;;;;;4.13;3.83;;;;;;;4.91;100.00;101310.84;6083491;23;20021;-74
2023/03/29 01:01:18;;;;;;;4.20;4.00;;;;;;;4.94;100.00;101319.44;6082525;23;20049;-75
2023/03/29 01:03:53;;;;;;;4.20;4.00;;;;;;;4.43;100.00;101227.66;6058575;23;20034;-75
2023/03/29 01:06:25;;;;;;;3.22;3.05;;;;;;;3.77;100.00;101126.66;6080285;23;20084;-75
2023/03/29 01:08:56;;;;;;;3.50;3.30;;;;;;;4.68;100.00;101254.94;6057056;23;20453;-75
2023/03/29 01:11:27;;;;;;;3.78;3.50;;;;;;;4.97;100.00;101295.13;6080601;23;20022;-75
2023/03/29 01:13:58;;;;;;;3.78;3.58;;;;;;;5.01;100.00;101309.78;6083145;23;20018;-74
2023/03/29 01:16:27;;;;;;;3.88;3.58;;;;;;;5.08;100.00;101293.16;6066060;23;20015;-75
2023/03/29 01:18:57;;;;;;;3.90;3.50;;;;;;;4.27;100.00;101164.72;6078077;23;20027;-76
2023/03/29 01:21:31;;;;;;;4.20;3.90;;;;;;;5.08;100.00;101298.38;6105448;23;20049;-75
2023/03/29 01:24:05;;;;;;;4.32;4.13;;;;;;;5.05;100.00;101298.44;6082069;23;20126;-75
2023/03/29 01:26:52;;;;;;;27.15;3.88;;;;;;;5.06;100.00;101288.91;6082241;23;20025;-75
2023/03/29 01:29:32;;;;;;;4.18;3.88;;;;;;;4.23;100.00;101152.69;6079712;23;20029;-75
2023/03/29 01:32:04;;;;;;;3.55;3.35;;;;;;;4.77;100.00;101220.97;6057530;23;20039;-76
2023/03/29 01:34:37;;;;;;;3.58;3.38;;;;;;;4.54;100.00;101195.41;6081946;23;20033;-75
2023/03/29 01:37:16;;;;;;;4.05;3.75;;;;;;;4.83;100.00;101237.31;6055246;23;20083;-76
2023/03/29 01:39:42;;;;;;;3.35;3.22;;;;;;;5.11;100.00;101272.31;6082507;23;20162;-76
2023/03/29 01:42:15;;;;;;;4.30;4.00;;;;;;;5.07;100.00;101265.47;6067219;23;20046;-76
2023/03/29 01:44:50;;;;;;;4.10;3.80;;;;;;;5.10;100.00;101262.78;6075714;23;20049;-74
2023/03/29 01:47:26;;;;;;;3.90;3.70;;;;;;;5.09;100.00;101255.00;6080863;23;20117;-76
2023/03/29 01:50:05;;;;;;;4.07;3.78;;;;;;;5.11;100.00;101258.41;6080604;23;20033;-76
2023/03/29 01:52:40;;;;;;;3.78;3.58;;;;;;;5.06;100.00;101248.13;6078519;23;20081;-75
2023/03/29 01:55:16;;;;;;;3.70;3.50;;;;;;;4.87;100.00;101223.38;6054006;23;20023;-75
2023/03/29 01:57:45;;;;;;;6.20;4.05;;;;;;;5.10;100.00;101254.97;6080580;23;20635;-76
2023/03/29 02:00:19;;;;;;;4.00;3.72;;;;;;;4.62;100.00;101176.22;6061906;23;20212;-76
2023/03/29 02:02:48;;;;;;;4.13;3.83;;;;;;;4.98;100.00;101244.81;6075043;23;20290;-76
2023/03/29 02:05:15;;;;;;;10.65;4.18;;;;;;;4.71;100.00;101181.22;6064020;23;20112;-76
2023/03/29 02:07:44;;;;;;;4.22;3.90;;;;;;;4.97;100.00;101219.69;6082347;23;20524;-76
2023/03/29 02:10:12;;;;;;;3.97;3.78;;;;;;;5.18;100.00;101247.88;6056751;23;20018;-75
2023/03/29 02:12:39;;;;;;;4.00;3.75;;;;;;;5.17;100.00;101232.28;6078747;23;20024;-75
2023/03/29 02:15:11;;;;;;;4.88;3.97;;;;;;;5.18;100.00;101229.66;6097440;23;20038;-75
2023/03/29 02:17:37;;;;;;;6.22;4.10;;;;;;;4.62;100.00;101139.81;6075566;23;20032;-75
2023/03/29 02:20:19;;;;;;;4.25;4.05;;;;;;;4.55;100.00;101131.28;6061607;23;20025;-75
2023/03/29 02:22:49;;;;;;;3.30;3.20;;;;;;;5.17;100.00;101222.75;6078910;23;20016;-75
2023/03/29 02:25:16;;;;;;;3.80;3.60;;;;;;;4.73;100.00;101148.22;6075605;23;21060;-76
2023/03/29 02:27:44;;;;;;;3.45;3.35;;;;;;;4.60;100.00;101132.88;6079777;23;20081;-75
2023/03/29 02:30:12;;;;;;;3.80;3.60;;;;;;;4.62;100.00;101132.03;6057379;23;20298;-75
2023/03/29 02:32:54;;;;;;;3.83;3.53;;;;;;;5.23;100.00;101244.31;6078252;23;20075;-76
2023/03/29 02:35:33;;;;;;;4.60;4.13;;;;;;;4.55;100.00;101116.56;6082089;23;20024;-75
2023/03/29 02:38:03;;;;;;;3.63;3.40;;;;;;;5.26;100.00;101226.03;6077578;23;20032;-76
2023/03/29 02:40:31;;;;;;;3.80;3.60;;;;;;;5.14;100.00;101207.19;6085894;23;20046;-74
2023/03/29 02:43:00;;;;;;;6.60;4.78;;;;;;;4.83;100.00;101156.69;6082249;23;20026;-75
2023/03/29 02:45:28;;;;;;;3.60;3.33;;;;;;;4.79;100.00;101148.97;6062474;23;20134;-74
2023/03/29 02:47:59;;;;;;;4.65;4.25;;;;;;;5.15;100.00;101203.72;6076217;23;20113;-75
2023/03/29 02:50:29;;;;;;;3.95;3.75;;;;;;;5.27;100.00;101225.13;6050303;23;21143;-74
2023/03/29 02:53:03;;;;;;;4.03;3.83;;;;;;;4.62;100.00;101119.03;6079917;23;20035;-76
2023/03/29 02:55:33;;;;;;;4.20;3.90;;;;;;;5.11;100.00;101220.28;6076839;23;20054;-75
2023/03/29 02:58:07;;;;;;;3.97;3.78;;;;;;;5.15;100.00;101211.53;6100805;23;20503;-76
2023/03/29 03:00:44;;;;;;;3.60;3.40;;;;;;;4.85;100.00;101162.72;6057047;23;20030;-77
2023/03/29 03:03:12;;;;;;;4.32;4.13;;;;;;;5.01;100.00;101190.13;6075497;23;20406;-75
2023/03/29 03:05:38;;;;;;;3.30;3.20;;;;;;;5.26;100.00;101228.63;6078962;23;20037;-74
2023/03/29 03:08:06;;;;;;;4.07;3.78;;;;;;;5.25;100.00;101226.91;6075893;23;20117;-74
2023/03/29 03:10:34;;;;;;;3.80;3.60;;;;;;;5.07;100.00;101216.03;6074143;23;20102;-74
2023/03/29 03:13:01;;;;;;;5.47;4.32;;;;;;;4.71;100.00;101134.41;6079213;23;20022;-75
2023/03/29 03:15:27;;;;;;;3.60;3.45;;;;;;;4.72;100.00;101123.13;6074730;23;20256;-74
2023/03/29 03:17:54;;;;;;;4.47;3.55;;;;;;;4.77;100.00;101118.69;6076522;23;20022;-74
2023/03/29 03:20:21;;;;;;;3.95;3.75;;;;;;;5.14;100.00;101169.91;6075729;23;20041;-75
2023/03/29 03:22:48;;;;;;;3.95;3.75;;;;;;;4.36;100.00;101040.69;6079895;23;20073;-74
2023/03/29 03:25:20;;;;;;;4.38;4.07;;;;;;;5.01;100.00;101148.50;6075030;23;20062;-74
2023/03/29 03:27:47;;;;;;;3.63;3.35;;;;;;;4.74;100.00;101104.00;6064887;23;20085;-76
2023/03/29 03:30:15;;;;;;;3.50;3.30;;;;;;;5.30;100.00;101220.72;6078313;23;20026;-75
2023/03/29 03:32:44;;;;;;;3.70;3.50;;;;;;;5.32;100.00;101207.69;6083188;23;20033;-75
2023/03/29 03:35:11;;;;;;;4.45;4.15;;;;;;;5.32;100.00;101205.94;6082621;23;20021;-75
2023/03/29 03:37:38;;;;;;;4.40;4.07;;;;;;;4.89;100.00;101128.84;6104727;23;20038;-75
2023/03/29 03:40:10;;;;;;;8.85;4.25;;;;;;;5.37;100.00;101204.09;6081017;23;20032;-74
2023/03/29 03:42:38;;;;;;;4.40;4.10;;;;;;;5.22;100.00;101183.59;6085384;23;20060;-74
2023/03/29 03:45:05;;;;;;;4.13;3.88;;;;;;;5.42;100.00;101203.13;6078907;23;20018;-75
2023/03/29 03:47:31;;;;;;;7.72;4.78;;;;;;;5.44;100.00;101204.81;6080209;23;20025;-75
2023/03/29 03:49:58;;;;;;;4.50;4.20;;;;;;;4.97;100.00;101120.84;6081927;23;20026;-75
2023/03/29 03:52:25;;;;;;;4.07;3.88;;;;;;;4.75;100.00;101077.13;6080610;23;20045;-75
2023/03/29 03:54:51;;;;;;;4.57;4.20;;;;;;;5.10;100.00;101137.91;6084633;23;20021;-75
2023/03/29 03:57:17;;;;;;;7.38;4.28;;;;;;;4.49;100.00;101037.84;6083403;23;20469;-75
2023/03/29 03:59:44;;;;;;;5.20;4.68;;;;;;;5.40;100.00;101171.94;6106273;23;20021;-75
2023/03/29 04:02:10;;;;;;;5.53;4.68;;;;;;;5.27;100.00;101160.06;6081656;23;20087;-75
2023/03/29 04:04:38;;;;;;;4.18;3.97;;;;;;;5.53;100.00;101183.78;6083569;23;20038;-75
2023/03/29 04:07:04;;;;;;;4.47;4.18;;;;;;;5.44;100.00;101168.38;6085224;23;20340;-75
2023/03/29 04:09:32;;;;;;;4.07;3.58;;;;;;;5.28;100.00;101141.00;6077896;23;20052;-75
2023/03/29 04:12:00;;;;;;;3.60;3.40;;;;;;;5.51;100.00;101182.97;6059149;23;20018;-75
2023/03/29 04:14:27;;;;;;;3.60;3.40;;;;;;;4.86;100.00;101095.09;6077272;23;20033;-75
2023/03/29 04:16:54;;;;;;;3.80;3.60;;;;;;;5.28;100.00;101167.00;6066717;23;20029;-75
2023/03/29 04:19:20;;;;;;;5.75;5.25;;;;;;;5.28;100.00;101177.41;6076591;23;20022;-76
2023/03/29 04:21:48;;;;;;;4.22;3.90;;;;;;;5.43;100.00;101189.22;6060926;23;20084;-76
2023/03/29 04:24:16;;;;;;;3.97;3.72;;;;;;;5.42;100.00;101197.94;6079192;23;20474;-76
2023/03/29 04:26:43;;;;;;;3.70;3.50;;;;;;;5.30;100.00;101160.88;6079618;23;20025;-76
2023/03/29 04:29:09;;;;;;;4.53;4.22;;;;;;;5.30;100.00;101149.63;6077360;23;20542;-75
2023/03/29 04:31:36;;;;;;;3.38;3.22;;;;;;;5.24;100.00;101142.78;6060391;23;20116;-76
2023/03/29 04:34:03;;;;;;;4.03;3.83;;;;;;;5.42;100.00;101174.50;6077811;23;20029;-75
2023/03/29 04:36:29;;;;;;;6.97;3.78;;;;;;;5.42;100.00;101174.50;6081120;23;20134;-76
2023/03/29 04:38:57;;;;;;;3.72;3.53;;;;;;;5.44;100.00;101170.97;6075897;23;20036;-75
2023/03/29 04:41:23;;;;;;;3.80;3.60;;;;;;;5.28;100.00;101135.78;6065240;23;20007;-75
2023/03/29 04:43:50;;;;;;;4.13;3.92;;;;;;;4.24;100.00;100963.00;6077496;23;20030;-75
2023/03/29 04:46:17;;;;;;;4.18;3.88;;;;;;;4.74;100.00;101040.75;6083982;23;20264;-74
2023/03/29 04:48:43;;;;;;;4.05;3.75;;;;;;;5.45;100.00;101148.38;6084817;23;20477;-74
2023/03/29 04:51:10;;;;;;;4.57;4.38;;;;;;;5.12;100.00;101091.91;6090893;23;20045;-75
2023/03/29 04:53:36;;;;;;;4.03;3.83;;;;;;;4.92;100.00;101071.53;6083730;23;20033;-74
2023/03/29 04:56:03;;;;;;;4.22;3.92;;;;;;;5.25;100.00;101121.09;6079706;23;20256;-74
2023/03/29 04:58:29;;;;;;;4.32;4.03;;;;;;;4.93;100.00;101070.66;6056217;23;20437;-74
2023/03/29 05:00:58;;;;;;;4.20;3.85;;;;;;;5.16;100.00;101101.34;6079070;23;20467;-75
2023/03/29 05:03:25;;;;;;;7.43;4.38;;;;;;;4.74;100.00;101023.41;6079625;23;20448;-75
2023/03/29 05:05:52;;;;;;;4.57;4.28;;;;;;;5.53;100.00;101160.34;6078524;23;20038;-75
2023/03/29 05:08:18;;;;;;;3.97;3.78;;;;;;;5.11;100.00;101087.59;6078813;23;20402;-75
2023/03/29 05:10:46;;;;;;;4.15;3.85;;;;;;;5.02;100.00;101055.75;6079259;23;20014;-75
2023/03/29 05:13:12;;;;;;;3.97;3.78;;;;;;;5.45;100.00;101128.41;6080213;23;20527;-76
2023/03/29 05:15:40;;;;;;;4.63;4.13;;;;;;;5.43;100.00;101117.19;6077439;23;20038;-75
2023/03/29 05:18:07;;;;;;;4.05;3.67;;;;;;;5.34;100.00;101097.44;6060988;23;20159;-74
2023/03/29 05:20:33;;;;;;;11.80;4.35;;;;;;;5.43;100.00;101106.78;6077069;23;20131;-75
2023/03/29 05:23:00;;;;;;;4.70;4.13;;;;;;;5.43;100.00;101124.13;6083641;23;20141;-72
2023/03/29 05:25:27;;;;;;;3.78;3.58;;;;;;;5.23;100.00;101065.59;6077269;23;20181;-72
2023/03/29 05:27:53;;;;;;;3.40;3.20;;;;;;;5.65;100.00;101138.34;6076942;23;20468;-73
2023/03/29 05:30:19;;;;;;;4.30;4.00;;;;;;;5.69;100.00;101142.59;6084197;23;20310;-72
2023/03/29 05:32:46;;;;;;;3.95;3.75;;;;;;;5.51;100.00;101103.97;6080886;23;20062;-73
2023/03/29 05:35:14;;;;;;;3.83;3.63;;;;;;;5.47;100.00;101099.75;6079487;23;20536;-72
2023/03/29 05:37:40;;;;;;;4.35;4.13;;;;;;;5.77;100.00;101134.56;6079734;23;20030;-72
2023/03/29 05:40:09;;;;;;;4.65;4.35;;;;;;;5.41;100.00;101059.09;6084036;23;20026;-73
2023/03/29 05:42:37;;;;;;;4.47;4.05;;;;;;;4.77;100.00;100953.16;6080517;23;20055;-72
2023/03/29 05:45:04;;;;;;;4.78;4.47;;;;;;;5.85;100.00;101118.75;6082010;23;20033;-71
2023/03/29 05:47:31;;;;;;;4.68;4.35;;;;;;;5.77;100.00;101116.34;6075986;23;20049;-72
2023/03/29 05:49:57;;;;;;;4.28;4.07;;;;;;;5.75;100.00;101113.81;6053001;23;20030;-71
2023/03/29 05:52:23;;;;;;;4.05;3.85;;;;;;;5.89;100.00;101115.19;6077618;23;20474;-72
2023/03/29 05:54:50;;;;;;;4.47;4.07;;;;;;;5.58;100.00;101056.09;6078290;23;20014;-71
2023/03/29 05:57:16;;;;;;;5.15;4.65;;;;;;;5.86;100.00;101099.66;6078268;23;20029;-72
2023/03/29 05:59:43;;;;;;;4.22;4.03;;;;;;;5.01;100.00;100953.41;6075077;23;20632;-71
2023/03/29 06:02:11;;;;;;;4.50;4.20;;;;;;;5.38;100.00;101009.75;6070230;23;20867;-72
2023/03/29 06:04:38;;;;;;;4.10;3.90;;;;;;;6.06;100.00;101117.38;6051925;23;20042;-73
2023/03/29 06:07:05;;;;;;;4.40;4.10;;;;;;;5.77;100.00;101062.53;6077132;23;20096;-72
2023/03/29 06:09:32;;;;;;;4.47;4.20;;;;;;;5.89;100.00;101066.53;6085706;23;20026;-73
2023/03/29 06:12:00;;;;;;;5.65;4.18;;;;;;;5.93;100.00;101082.94;6075004;23;20042;-73
2023/03/29 06:14:27;;;;;;;5.03;4.57;;;;;;;6.21;100.00;101110.91;6077840;23;20105;-72
2023/03/29 06:16:55;;;;;;;8.93;4.45;;;;;;;6.22;100.00;101113.47;6079048;23;20440;-73
2023/03/29 06:19:22;;;;;;;5.75;5.18;;;;;;;6.25;100.00;101112.53;6075840;23;20436;-73
2023/03/29 06:21:48;;;;;;;4.00;3.80;;;;;;;6.26;100.00;101104.66;6080568;23;20020;-72
2023/03/29 06:24:15;;;;;;;3.92;3.70;;;;;;;6.15;100.00;101088.47;6076481;23;20060;-72
2023/03/29 06:26:41;;;;;;;5.28;4.25;;;;;;;6.35;100.00;101100.94;6076765;23;20468;-72
2023/03/29 06:29:09;;;;;;;4.45;4.00;;;;;;;6.41;100.00;101115.56;6076135;23;20018;-74
2023/03/29 06:31:35;;;;;;;4.15;3.90;;;;;;;6.36;100.00;101092.22;6082922;23;20026;-72
2023/03/29 06:34:03;;;;;;;3.95;3.75;;;;;;;5.95;100.00;101000.44;6078306;23;20362;-72
2023/03/29 06:36:32;;;;;;;4.05;3.80;;;;;;;6.58;100.00;101101.13;6078441;23;20010;-72
2023/03/29 06:38:59;;;;;;;4.43;4.13;;;;;;;6.05;100.00;100999.28;6080352;23;20128;-72
2023/03/29 06:41:26;;;;;;;4.30;4.00;;;;;;;6.65;100.00;101111.41;6078983;23;20479;-72
2023/03/29 06:43:53;;;;;;;5.53;4.82;;;;;;;6.71;100.00;101106.84;6077868;23;20484;-72
2023/03/29 06:46:20;;;;;;;3.92;3.72;;;;;;;6.35;100.00;101041.88;6053488;23;20042;-72
2023/03/29 06:48:47;;;;;;;4.50;4.10;;;;;;;6.31;100.00;101031.53;6075132;23;20051;-72
2023/03/29 06:51:13;;;;;;;4.35;4.15;;;;;;;5.80;100.00;100942.63;6077452;23;20022;-73
2023/03/29 06:53:40;;;;;;;4.43;4.13;;;;;;;6.70;100.00;101089.50;6073156;23;20253;-71
2023/03/29 06:56:09;;;;;;;4.63;4.30;;;;;;;6.30;100.00;101022.88;6075068;23;20500;-73
2023/03/29 06:58:36;;;;;;;4.22;3.92;;;;;;;6.39;100.00;101030.44;6050027;23;20093;-72
2023/03/29 07:01:03;;;;;;;22.05;4.03;;;;;;;6.91;100.00;101110.63;6072389;23;20049;-72
2023/03/29 07:03:30;;;;;;;4.72;4.32;;;;;;;6.43;100.00;101014.69;6076223;23;20020;-71
2023/03/29 07:06:08;;;;;;;3.90;3.70;;;;;;;6.78;100.00;101078.84;6076874;23;20049;-72
2023/03/29 07:08:42;;;;;;;4.43;4.13;;;;;;;6.03;100.00;100932.47;6076069;23;20346;-72
2023/03/29 07:11:11;;;;;;;4.90;4.55;;;;;;;6.11;100.00;100926.13;6095364;23;20049;-72
2023/03/29 07:13:41;;;;;;;3.97;3.78;;;;;;;6.81;100.00;101034.38;6077221;23;20025;-72
2023/03/29 07:16:12;;;;;;;4.78;4.45;;;;;;;6.83;100.00;101036.94;6074204;23;20473;-73
2023/03/29 07:18:40;;;;;;;4.57;4.20;;;;;;;7.31;100.00;101096.31;6072171;23;20440;-73
2023/03/29 07:21:08;;;;;;;4.57;4.30;;;;;;;7.47;100.00;101100.13;6075612;23;20608;-72
2023/03/29 07:23:34;;;;;;;4.43;4.13;;;;;;;7.15;100.00;101042.00;6071755;23;20026;-71
2023/03/29 07:26:01;;;;;;;3.92;3.63;;;;;;;7.05;100.00;101030.13;6074290;23;20486;-72
2023/03/29 07:28:28;;;;;;;5.00;4.70;;;;;;;7.38;100.00;101088.25;6072125;23;20481;-72
2023/03/29 07:31:03;;;;;;;4.90;4.57;;;;;;;7.34;100.00;101086.63;6097132;23;20131;-73
2023/03/29 07:33:30;;;;;;;4.78;4.47;;;;;;;7.33;100.00;101086.69;6076165;23;20226;-72
2023/03/29 07:35:57;;;;;;;4.68;4.38;;;;;;;7.21;100.00;101074.88;6074938;23;20481;-72
2023/03/29 07:38:24;;;;;;;4.20;4.00;;;;;;;7.06;100.00;101039.69;6073235;23;20034;-72
2023/03/29 07:40:53;;;;;;;5.13;4.68;;;;;;;7.10;100.00;101040.44;6076234;23;20480;-72
2023/03/29 07:43:20;;;;;;;4.47;4.18;;;;;;;7.53;100.00;101101.69;6075306;23;20022;-71
2023/03/29 07:45:47;;;;;;;10.23;4.38;;;;;;;7.68;100.00;101102.97;6073893;23;20026;-72
2023/03/29 07:48:14;;;;;;;4.75;4.45;;;;;;;7.77;100.00;101097.41;6072992;23;20077;-71
2023/03/29 07:50:42;;;;;;;4.93;3.97;;;;;;;7.31;100.00;101012.78;6051237;23;20030;-71
2023/03/29 07:53:09;;;;;;;5.30;4.90;;;;;;;7.74;100.00;101066.19;6074776;23;20149;-71
2023/03/29 07:55:45;;;;;;;5.50;5.10;;;;;;;8.02;100.00;101100.03;6098015;23;20860;-71
2023/03/29 07:58:13;;;;;;;4.72;4.43;;;;;;;8.06;100.00;101085.97;6071292;23;20280;-71
2023/03/29 08:00:42;;;;;;;6.45;5.13;;;;;;;8.07;100.00;101050.22;6098367;23;21627;-71
2023/03/29 08:03:12;;;;;;;5.05;4.68;;;;;;;8.03;98.95;101019.88;6095375;23;20037;-72
2023/03/29 08:05:38;;;;;;;4.50;4.20;;;;;;;8.64;97.54;101075.16;6074705;23;20029;-72
2023/03/29 08:08:08;;;;;;;5.32;4.97;;;;;;;8.90;95.85;101095.09;6075103;23;20322;-72
2023/03/29 08:10:39;;;;;;;6.82;4.88;;;;;;;8.66;92.78;101028.84;6070165;23;20030;-72
2023/03/29 08:13:07;;;;;;;4.50;4.25;;;;;;;9.05;91.32;101072.66;6073859;23;20499;-71
2023/03/29 08:15:38;;;;;;;9.05;5.63;;;;;;;8.89;89.46;101017.47;6070638;23;20524;-72
2023/03/29 08:18:06;;;;;;;5.70;5.15;;;;;;;9.28;88.57;101057.78;6102043;23;20026;-72
2023/03/29 08:20:33;;;;;;;5.40;5.00;;;;;;;9.19;87.00;101033.69;6077781;23;20513;-72
2023/03/29 08:22:59;;;;;;;4.97;4.53;;;;;;;9.26;86.73;101018.59;6065313;23;20039;-71
2023/03/29 08:25:26;;;;;;;4.95;4.65;;;;;;;9.38;86.42;101028.56;6073021;23;20023;-71
2023/03/29 08:27:52;;;;;;;4.75;4.45;;;;;;;9.30;86.77;101001.84;6101811;23;20088;-72
2023/03/29 08:30:19;;;;;;;5.82;5.35;;;;;;;9.14;86.09;100974.56;6081254;23;20036;-72
2023/03/29 08:32:46;;;;;;;15.50;7.43;;;;;;;9.46;85.80;101019.50;6077458;23;20025;-73
2023/03/29 08:35:17;;;;;;;5.57;5.10;;;;;;;9.45;87.05;101023.06;6054962;23;20233;-72
2023/03/29 08:37:43;;;;;;;5.47;4.97;;;;;;;8.59;86.47;100873.88;6080638;23;20242;-72
2023/03/29 08:40:30;;;;;;;5.05;4.75;;;;;;;9.53;85.77;101027.03;6081697;23;20030;-73
2023/03/29 08:43:04;;;;;;;8.65;5.10;;;;;;;9.41;86.93;101030.19;6079664;23;20068;-73
2023/03/29 08:45:50;;;;;;;5.28;4.90;;;;;;;9.41;87.64;101043.28;6078399;23;20062;-73
2023/03/29 08:48:55;;;;;;;6.15;5.55;;;;;;;9.42;87.46;101037.16;6062723;23;20085;-73
2023/03/29 08:51:28;;;;;;;5.05;4.75;;;;;;;9.47;88.86;101048.25;6069375;23;20006;-72
2023/03/29 08:54:01;;;;;;;7.85;5.38;;;;;;;9.30;89.13;100993.09;6079576;23;20523;-73
2023/03/29 08:56:31;;;;;;;5.13;4.82;;;;;;;9.21;87.87;100972.56;6079653;23;20154;-73
2023/03/29 08:59:00;;;;;;;6.13;5.30;;;;;;;9.72;88.47;101034.09;6078407;23;20092;-72
2023/03/29 09:01:31;;;;;;;7.82;5.30;;;;;;;9.71;88.10;101022.78;6053131;23;20398;-71
2023/03/29 09:04:18;;;;;;;5.63;5.20;;;;;;;9.66;87.07;100977.59;6091640;23;20026;-71
2023/03/29 09:06:46;;;;;;;4.47;4.28;;;;;;;9.90;86.52;101007.13;6075229;23;20376;-72
2023/03/29 09:09:27;;;;;;;4.80;4.50;;;;;;;10.13;86.02;101023.59;6081909;23;20420;-72
2023/03/29 09:12:10;;;;;;;5.45;5.05;;;;;;;9.73;85.57;100949.34;6079774;23;20014;-72
2023/03/29 09:14:46;;;;;;;;;;;;;;;10.21;85.23;101016.22;6076596;23;20025;-71
2023/03/29 09:17:26;;;;;;;4.78;4.50;;;;;;;10.32;84.38;101014.00;6097986;23;19910;-72
2023/03/29 09:20:09;;;;;;;7.50;4.80;;;;;;;10.33;84.19;101013.06;6078991;23;20140;-72
2023/03/29 09:23:07;;;;;;;5.55;5.15;;;;;;;10.52;83.80;101020.94;6076196;23;20012;-72
2023/03/29 09:25:58;;;;;;;5.32;4.95;;;;;;;10.18;83.25;100951.66;6068350;23;20025;-72
2023/03/29 09:28:37;;;;;;;6.78;5.10;;;;;;;10.71;83.66;101015.66;6075450;23;20371;-72
2023/03/29 09:31:12;;;;;;;4.78;4.45;;;;;;;10.93;82.83;101012.84;6076159;23;20038;-72
2023/03/29 09:33:52;;;;;;;5.60;5.10;;;;;;;11.16;82.25;101016.13;6079804;23;20488;-72
2023/03/29 09:36:35;;;;;;;5.47;5.07;;;;;;;11.04;80.42;100962.41;6074072;23;21017;-72
2023/03/29 09:39:03;;;;;;;5.13;4.82;;;;;;;11.36;79.89;100968.66;6051660;23;20835;-72
2023/03/29 09:41:38;;;;;;;5.97;5.47;;;;;;;11.41;78.87;100978.13;6076663;23;20010;-72
2023/03/29 09:44:09;;;;;;;5.72;5.43;;;;;;;11.50;78.40;100975.84;6077309;23;20754;-72
2023/03/29 09:46:57;;;;;;;5.50;5.18;;;;;;;11.72;78.36;100987.88;6073387;23;20058;-72
2023/03/29 09:49:30;;;;;;;6.05;5.45;;;;;;;11.74;78.21;100980.75;6052825;23;20030;-71
2023/03/29 09:52:04;;;;;;;5.18;4.78;;;;;;;11.76;78.08;100966.59;6076259;23;20022;-73
2023/03/29 09:54:31;;;;;;;6.40;5.90;;;;;;;11.79;78.00;100968.25;6073672;23;20304;-72
2023/03/29 09:56:58;;;;;;;6.07;5.53;;;;;;;11.86;77.54;100969.59;6081977;23;20041;-72
2023/03/29 09:59:25;;;;;;;5.60;5.22;;;;;;;11.76;78.07;100955.22;6078510;23;20046;-72
2023/03/29 10:01:51;;;;;;;6.78;5.35;;;;;;;11.87;77.96;100968.69;6074901;23;20287;-72
2023/03/29 10:04:20;;;;;;;7.63;6.20;;;;;;;11.60;77.04;100878.13;6074821;23;20041;-72
2023/03/29 10:06:50;;;;;;;13.20;6.75;;;;;;;11.97;76.42;100905.94;6103423;23;20018;-73
2023/03/29 10:09:22;;;;;;;9.10;5.20;;;;;;;12.03;75.72;100908.25;6066031;23;20323;-72
2023/03/29 10:11:57;;;;;;;5.57;5.18;;;;;;;11.46;76.71;100848.16;6073088;23;20017;-73
2023/03/29 10:14:34;;;;;;;6.20;5.65;;;;;;;12.00;77.14;100949.63;6056039;23;20050;-72
2023/03/29 10:17:05;;;;;;;7.88;5.63;;;;;;;12.28;78.12;100977.91;6077279;23;20013;-72
2023/03/29 10:19:34;;;;;;;10.38;5.80;;;;;;;12.32;77.11;100968.91;6077779;23;20026;-71
2023/03/29 10:22:13;;;;;;;7.85;6.25;;;;;;;12.45;77.00;100962.06;6076661;23;20022;-71
2023/03/29 10:24:39;;;;;;;5.60;5.20;;;;;;;12.70;77.39;100969.41;6077046;23;20385;-72
2023/03/29 10:27:09;;;;;;;5.70;5.20;;;;;;;12.69;76.82;100932.63;6070079;23;20225;-73
2023/03/29 10:29:39;;;;;;;5.65;5.25;;;;;;;12.98;76.26;100958.13;6080302;23;20354;-71
2023/03/29 10:32:21;;;;;;;6.78;6.07;;;;;;;12.67;75.41;100869.53;6073448;23;20089;-71
2023/03/29 10:34:50;;;;;;;5.40;5.00;;;;;;;13.24;74.64;100924.13;6079844;23;20034;-72
2023/03/29 10:37:18;;;;;;;5.63;5.15;;;;;;;13.34;73.10;100898.09;6074769;23;20225;-73
2023/03/29 10:39:47;;;;;;;7.30;5.63;;;;;;;13.81;72.08;100922.50;6102029;23;20032;-73
2023/03/29 10:42:21;;;;;;;7.22;5.68;;;;;;;13.80;71.06;100874.16;6077397;23;20067;-72
2023/03/29 10:44:57;;;;;;;5.90;5.25;;;;;;;13.57;70.46;100826.34;6077178;23;20516;-72
2023/03/29 10:47:24;;;;;;;5.28;4.90;;;;;;;14.20;70.14;100881.34;6078057;23;20026;-72
2023/03/29 10:49:54;;;;;;;5.32;5.03;;;;;;;14.20;69.54;100829.41;6075615;23;20379;-72
2023/03/29 10:52:22;;;;;;;5.93;5.43;;;;;;;14.34;68.55;100807.38;6099133;23;20026;-73
2023/03/29 10:54:51;;;;;;;5.30;5.00;;;;;;;14.96;68.08;100852.50;6101159;23;20090;-73
2023/03/29 10:57:32;;;;;;;6.97;6.20;;;;;;;15.09;65.98;100807.56;6057554;23;20408;-72
2023/03/29 11:00:09;;;;;;;6.78;6.10;;;;;;;14.56;65.40;100698.53;6078106;23;20030;-71
2023/03/29 11:02:47;;;;;;;6.15;5.75;;;;;;;15.03;65.80;100786.84;6078079;23;20387;-71
2023/03/29 11:05:14;;;;;;;6.20;5.68;;;;;;;14.94;66.15;100771.66;6074868;23;20510;-71
2023/03/29 11:07:57;;;;;;;5.95;5.55;;;;;;;14.69;66.17;100786.56;6076298;23;20030;-71
2023/03/29 11:10:42;;;;;;;;;;;;;;;14.56;67.03;100794.44;6099751;23;20585;-71
2023/03/29 11:13:20;;;;;;;5.35;5.05;;;;;;;14.55;68.54;100805.06;6095808;23;19918;-73
2023/03/29 11:16:17;;;;;;;6.18;5.68;;;;;;;14.64;68.43;100843.28;6048631;23;20423;-71
2023/03/29 11:19:05;;;;;;;5.55;5.25;;;;;;;14.67;68.74;100820.16;6070816;23;20111;-71
2023/03/29 11:21:44;;;;;;;6.15;5.72;;;;;;;14.85;68.66;100828.59;6075414;23;20014;-72
2023/03/29 11:24:24;;;;;;;6.00;5.60;;;;;;;14.94;67.77;100808.66;6069372;23;20014;-71
2023/03/29 11:27:06;;;;;;;9.77;5.38;;;;;;;15.42;67.88;100834.44;6050377;23;20477;-72
2023/03/29 11:30:05;;;;;;;9.40;5.93;;;;;;;15.58;65.79;100757.47;6072507;23;20041;-71
2023/03/29 11:32:44;;;;;;;6.07;5.32;;;;;;;16.02;63.29;100737.53;6077320;23;20356;-73
2023/03/29 11:35:17;;;;;;;5.72;5.43;;;;;;;15.24;62.26;100558.97;6072005;23;20020;-71
2023/03/29 11:37:51;;;;;;;;;;;;;;;16.05;61.89;100679.88;6071809;23;20018;-71
2023/03/29 11:40:34;;;;;;;6.00;5.40;;;;;;;16.18;62.16;100695.69;6072066;23;20441;-72
2023/03/29 11:43:10;;;;;;;5.38;5.07;;;;;;;15.69;62.38;100649.06;6043489;23;20098;-74